createdAt,value
2023-04-08T00:02:07.615Z,4.07
2023-04-08T00:04:34.199Z,4.47
2023-04-08T00:07:00.655Z,4.13
2023-04-08T00:09:29.743Z,3.95
2023-04-08T00:11:57.193Z,4.53
2023-04-08T00:14:23.910Z,4.85
2023-04-08T00:16:50.348Z,4.30
2023-04-08T00:19:16.844Z,3.97
2023-04-08T00:21:45.474Z,4.20
2023-04-08T00:24:11.849Z,4.70
2023-04-08T00:26:38.192Z,3.50
2023-04-08T00:29:04.689Z,4.07
2023-04-08T00:31:33.619Z,4.45
2023-04-08T00:34:00.150Z,4.22
2023-04-08T00:36:29.654Z,4.38
2023-04-08T00:38:56.562Z,3.22
2023-04-08T00:41:23.042Z,4.03
2023-04-08T00:43:49.400Z,4.13
2023-04-08T00:46:15.949Z,4.03
2023-04-08T00:48:42.483Z,3.83
2023-04-08T00:51:09.279Z,3.13
2023-04-08T00:53:37.884Z,3.47
2023-04-08T00:56:04.496Z,4.18
2023-04-08T00:58:30.985Z,4.20
2023-04-08T01:01:15.164Z,3.67
2023-04-08T01:04:23.790Z,3.25
2023-04-08T01:06:53.746Z,4.00
2023-04-08T01:09:25.938Z,3.83
2023-04-08T01:11:57.193Z,3.15
2023-04-08T01:14:32.541Z,3.35
2023-04-08T01:17:01.014Z,3.58
2023-04-08T01:19:40.581Z,2.72
2023-04-08T01:22:23.205Z,3.67
2023-04-08T01:27:17.905Z,2.92
2023-04-08T01:29:47.489Z,2.65
2023-04-08T01:32:16.359Z,3.17
2023-04-08T01:34:44.179Z,3.05
2023-04-08T01:37:12.218Z,3.40
2023-04-08T01:39:41.456Z,3.00
2023-04-08T01:42:08.734Z,2.30
2023-04-08T01:44:40.238Z,2.72
2023-04-08T01:47:07.273Z,2.70
2023-04-08T01:49:34.128Z,3.25
2023-04-08T01:52:01.398Z,2.75
2023-04-08T01:54:32.554Z,3.20
2023-04-08T01:57:01.596Z,3.40
2023-04-08T01:59:31.521Z,2.88
2023-04-08T02:02:01.443Z,3.50
2023-04-08T02:04:28.322Z,3.50
2023-04-08T02:06:56.690Z,3.42
2023-04-08T02:09:25.344Z,3.95
2023-04-08T02:11:51.809Z,3.85
2023-04-08T02:14:18.274Z,4.40
2023-04-08T02:16:54.296Z,4.25
2023-04-08T02:19:29.512Z,4.20
2023-04-08T02:22:18.391Z,3.20
2023-04-08T02:24:46.979Z,4.13
2023-04-08T02:27:13.402Z,5.05
2023-04-08T02:29:41.782Z,5.20
2023-04-08T02:32:12.056Z,4.63
2023-04-08T02:34:40.602Z,4.85
2023-04-08T02:37:09.796Z,4.95
2023-04-08T02:39:41.069Z,4.22
2023-04-08T02:42:11.832Z,4.80
2023-04-08T02:44:38.413Z,3.97
2023-04-08T02:47:07.316Z,4.85
2023-04-08T02:49:33.758Z,4.65
2023-04-08T02:52:00.372Z,4.78
2023-04-08T02:54:29.181Z,5.13
2023-04-08T02:56:55.537Z,5.00
2023-04-08T02:59:21.949Z,6.03
2023-04-08T03:01:48.425Z,4.35
2023-04-08T03:04:14.919Z,4.60
2023-04-08T03:06:45.265Z,5.10
2023-04-08T03:09:11.877Z,5.00
2023-04-08T03:11:38.190Z,5.95
2023-04-08T03:14:04.547Z,5.80
2023-04-08T03:16:30.970Z,4.82
2023-04-08T03:19:04.583Z,5.72
2023-04-08T03:21:31.841Z,5.57
2023-04-08T03:23:58.256Z,5.70
2023-04-08T03:26:24.794Z,5.25
2023-04-08T03:28:55.560Z,4.85
2023-04-08T03:31:24.653Z,6.05
2023-04-08T03:33:51.259Z,5.10
2023-04-08T03:36:17.656Z,5.18
2023-04-08T03:38:44.735Z,6.18
2023-04-08T03:41:11.164Z,5.53
2023-04-08T03:43:38.130Z,4.60
2023-04-08T03:46:06.988Z,5.50
2023-04-08T03:48:35.756Z,5.30
2023-04-08T03:51:02.205Z,6.40
2023-04-08T03:53:29.359Z,5.53
2023-04-08T03:55:56.799Z,5.68
2023-04-08T03:58:23.584Z,5.93
2023-04-08T04:00:50.603Z,5.82
2023-04-08T04:03:17.258Z,5.95
2023-04-08T04:05:43.761Z,5.78
2023-04-08T04:08:10.207Z,6.55
2023-04-08T04:10:36.782Z,6.10
2023-04-08T04:13:03.462Z,6.22
2023-04-08T04:15:29.919Z,6.13
2023-04-08T04:17:56.386Z,7.55
2023-04-08T04:20:22.905Z,8.25
2023-04-08T04:22:49.255Z,9.88
2023-04-08T04:25:15.718Z,8.85
2023-04-08T04:27:42.128Z,9.25
2023-04-08T04:30:09.525Z,8.93
2023-04-08T04:32:38.230Z,7.80
2023-04-08T04:35:07.597Z,7.47
2023-04-08T04:37:33.991Z,7.78
2023-04-08T04:40:03.097Z,7.47
2023-04-08T04:42:29.508Z,7.03
2023-04-08T04:44:55.944Z,6.85
2023-04-08T04:47:22.442Z,7.68
2023-04-08T04:49:48.918Z,7.65
2023-04-08T04:52:15.362Z,7.60
2023-04-08T04:54:46.709Z,6.75
2023-04-08T04:57:14.913Z,6.88
2023-04-08T04:59:46.188Z,6.97
2023-04-08T05:02:14.543Z,6.97
2023-04-08T05:04:41.192Z,7.60
2023-04-08T05:07:11.328Z,6.45
2023-04-08T05:09:37.882Z,6.80
2023-04-08T05:12:04.682Z,7.35
2023-04-08T05:14:33.481Z,7.53
2023-04-08T05:16:59.849Z,7.18
2023-04-08T05:19:29.158Z,7.20
2023-04-08T05:21:55.632Z,7.65
2023-04-08T05:24:22.088Z,7.25
2023-04-08T05:26:52.262Z,6.97
2023-04-08T05:29:19.141Z,7.55
2023-04-08T05:31:45.643Z,7.05
2023-04-08T05:34:15.761Z,7.38
2023-04-08T05:36:44.446Z,7.20
2023-04-08T05:39:12.109Z,7.57
2023-04-08T05:41:38.471Z,7.03
2023-04-08T05:44:04.876Z,6.88
2023-04-08T05:46:31.283Z,7.00
2023-04-08T05:49:00.146Z,6.32
2023-04-08T05:51:26.616Z,6.28
2023-04-08T05:53:53.040Z,7.40
2023-04-08T05:56:19.400Z,7.05
2023-04-08T05:58:45.831Z,7.25
2023-04-08T06:01:12.247Z,6.47
2023-04-08T06:03:38.791Z,6.65
2023-04-08T06:06:11.711Z,6.50
2023-04-08T06:08:38.116Z,6.18
2023-04-08T06:11:05.324Z,5.80
2023-04-08T06:13:32.456Z,5.40
2023-04-08T06:16:10.468Z,6.13
2023-04-08T06:18:36.932Z,5.22
2023-04-08T06:21:03.435Z,5.90
2023-04-08T06:23:30.068Z,5.55
2023-04-08T06:25:56.506Z,4.55
2023-04-08T06:28:25.283Z,5.32
2023-04-08T06:30:51.762Z,5.80
2023-04-08T06:33:18.261Z,5.05
2023-04-08T06:35:44.716Z,5.15
2023-04-08T06:38:11.179Z,4.63
2023-04-08T06:40:39.458Z,4.57
2023-04-08T06:43:07.799Z,5.45
2023-04-08T06:45:35.019Z,4.88
2023-04-08T06:48:02.221Z,5.10
2023-04-08T06:50:28.671Z,5.88
2023-04-08T06:52:55.511Z,4.28
2023-04-08T06:55:21.949Z,4.72
2023-04-08T06:57:48.497Z,4.40
2023-04-08T07:00:15.080Z,4.80
2023-04-08T07:02:41.683Z,3.80
2023-04-08T07:05:11.128Z,4.60
2023-04-08T07:07:38.109Z,4.75
2023-04-08T07:10:04.873Z,4.82
2023-04-08T07:12:31.353Z,4.82
2023-04-08T07:15:00.592Z,4.38
2023-04-08T07:17:27.060Z,4.85
2023-04-08T07:19:55.925Z,4.97
2023-04-08T07:22:22.498Z,4.72
2023-04-08T07:24:49.803Z,5.10
2023-04-08T07:27:17.308Z,5.88
2023-04-08T07:29:44.327Z,5.25
2023-04-08T07:32:10.842Z,4.80
2023-04-08T07:34:39.825Z,4.65
2023-04-08T07:37:06.342Z,4.32
2023-04-08T07:39:32.804Z,5.35
2023-04-08T07:41:59.211Z,5.55
2023-04-08T07:44:25.672Z,5.35
2023-04-08T07:46:52.179Z,7.10
2023-04-08T07:49:18.766Z,4.82
2023-04-08T07:51:45.248Z,5.95
2023-04-08T07:54:12.622Z,5.07
2023-04-08T07:56:40.401Z,5.20
2023-04-08T07:59:07.023Z,4.95
2023-04-08T08:01:34.920Z,4.90
2023-04-08T08:04:04.343Z,4.88
2023-04-08T08:06:33.985Z,4.78
2023-04-08T08:09:01.077Z,5.22
2023-04-08T08:11:28.042Z,5.93
2023-04-08T08:13:54.460Z,4.60
2023-04-08T08:16:21.209Z,5.32
2023-04-08T08:18:52.494Z,5.00
2023-04-08T08:21:19.114Z,5.10
2023-04-08T08:23:47.126Z,5.00
2023-04-08T08:26:13.472Z,5.65
2023-04-08T08:28:40.340Z,5.35
2023-04-08T08:31:07.031Z,5.22
2023-04-08T08:33:33.915Z,4.85
2023-04-08T08:36:00.743Z,4.70
2023-04-08T08:38:27.191Z,4.53
2023-04-08T08:40:57.518Z,4.80
2023-04-08T08:43:29.040Z,5.20
2023-04-08T08:45:55.892Z,5.45
2023-04-08T08:48:22.393Z,4.78
2023-04-08T08:50:48.889Z,4.57
2023-04-08T08:53:15.440Z,4.60
2023-04-08T08:58:11.294Z,5.22
2023-04-08T09:00:39.835Z,5.35
2023-04-08T09:03:28.897Z,5.03
2023-04-08T09:05:59.715Z,5.22
2023-04-08T09:08:34.813Z,4.70
2023-04-08T09:11:17.835Z,5.38
2023-04-08T09:13:48.849Z,4.70
2023-04-08T09:16:18.300Z,5.07
2023-04-08T09:18:47.197Z,5.10
2023-04-08T09:21:17.548Z,4.68
2023-04-08T09:23:49.594Z,4.85
2023-04-08T09:26:22.880Z,5.88
2023-04-08T09:29:18.338Z,4.90
2023-04-08T09:31:59.376Z,5.25
2023-04-08T09:34:27.633Z,5.72
2023-04-08T09:36:57.206Z,4.78
2023-04-08T09:39:24.225Z,5.53
2023-04-08T09:41:57.051Z,5.35
2023-04-08T09:44:26.683Z,6.10
2023-04-08T09:47:08.366Z,5.13
2023-04-08T09:49:43.515Z,5.93
2023-04-08T09:52:13.760Z,5.10
2023-04-08T09:54:51.991Z,5.10
2023-04-08T09:58:01.310Z,5.35
2023-04-08T10:00:50.384Z,5.97
2023-04-08T10:03:38.769Z,5.55
2023-04-08T10:06:08.298Z,5.78
2023-04-08T10:08:35.930Z,5.78
2023-04-08T10:11:05.039Z,5.32
2023-04-08T10:13:35.295Z,6.50
2023-04-08T10:16:27.163Z,5.38
2023-04-08T10:18:57.204Z,5.78
2023-04-08T10:21:37.193Z,5.88
2023-04-08T10:24:09.806Z,4.93
2023-04-08T10:26:41.765Z,5.95
2023-04-08T10:29:28.410Z,5.75
2023-04-08T10:31:55.082Z,5.10
2023-04-08T10:34:24.634Z,5.07
2023-04-08T10:36:51.220Z,5.47
2023-04-08T10:39:17.784Z,5.28
2023-04-08T10:41:44.137Z,5.30
2023-04-08T10:44:21.518Z,6.05
2023-04-08T10:46:49.178Z,5.70
2023-04-08T10:49:17.412Z,6.28
2023-04-08T10:51:44.447Z,5.32
2023-04-08T10:54:13.479Z,5.47
2023-04-08T10:56:49.478Z,5.53
2023-04-08T10:59:17.956Z,5.82
2023-04-08T11:01:48.297Z,5.63
2023-04-08T11:04:16.980Z,5.85
2023-04-08T11:06:45.090Z,5.53
2023-04-08T11:09:11.932Z,5.72
2023-04-08T11:11:38.908Z,5.82
2023-04-08T11:14:08.756Z,5.28
2023-04-08T11:16:40.680Z,5.28
2023-04-08T11:19:09.779Z,5.57
2023-04-08T11:21:37.425Z,5.35
2023-04-08T11:24:09.906Z,5.53
2023-04-08T11:26:37.271Z,5.70
2023-04-08T11:29:06.911Z,5.80
2023-04-08T11:31:34.269Z,5.45
2023-04-08T11:34:00.756Z,5.13
2023-04-08T11:36:30.075Z,6.00
2023-04-08T11:38:56.988Z,5.28
2023-04-08T11:41:23.778Z,5.88
2023-04-08T11:43:54.983Z,6.78
2023-04-08T11:46:21.974Z,6.35
2023-04-08T11:49:16.286Z,5.32
2023-04-08T11:52:09.290Z,5.32
2023-04-08T11:54:41.838Z,5.45
2023-04-08T11:57:10.021Z,5.13
2023-04-08T11:59:36.674Z,4.43
2023-04-08T12:02:06.290Z,4.50
2023-04-08T12:04:34.130Z,3.80
2023-04-08T12:07:03.003Z,4.43
2023-04-08T12:09:29.426Z,4.28
2023-04-08T12:11:56.740Z,4.20
2023-04-08T12:14:28.278Z,4.18
2023-04-08T12:16:54.905Z,4.45
2023-04-08T12:19:21.599Z,3.97
2023-04-08T12:21:48.023Z,3.83
2023-04-08T12:24:14.509Z,3.50
2023-04-08T12:26:40.995Z,4.25
2023-04-08T12:29:11.718Z,3.72
2023-04-08T12:31:43.167Z,3.97
2023-04-08T12:34:14.124Z,4.18
2023-04-08T12:36:41.934Z,4.28
2023-04-08T12:39:08.842Z,4.20
2023-04-08T12:41:35.409Z,4.40
2023-04-08T12:44:01.861Z,6.25
2023-04-08T12:46:28.486Z,4.40
2023-04-08T12:49:03.172Z,4.65
2023-04-08T12:51:31.020Z,4.50
2023-04-08T12:53:57.577Z,4.88
2023-04-08T12:56:24.316Z,4.82
2023-04-08T12:58:53.317Z,3.85
2023-04-08T13:01:22.134Z,3.80
2023-04-08T13:03:51.505Z,4.38
2023-04-08T13:06:18.160Z,4.25
2023-04-08T13:08:44.722Z,4.00
2023-04-08T13:11:11.448Z,4.13
2023-04-08T13:13:37.927Z,3.53
2023-04-08T13:16:06.960Z,4.07
2023-04-08T13:18:33.534Z,3.80
2023-04-08T13:21:00.668Z,3.78
2023-04-08T13:23:27.481Z,4.20
2023-04-08T13:25:53.819Z,3.78
2023-04-08T13:28:22.823Z,4.70
2023-04-08T13:30:49.425Z,4.47
2023-04-08T13:33:16.156Z,4.22
2023-04-08T13:35:43.029Z,5.13
2023-04-08T13:38:09.670Z,3.80
2023-04-08T13:40:36.169Z,3.42
2023-04-08T13:43:04.963Z,3.97
2023-04-08T13:45:33.446Z,4.28
2023-04-08T13:47:59.937Z,5.55
2023-04-08T13:50:28.916Z,4.45
2023-04-08T13:52:55.402Z,4.57
2023-04-08T13:55:22.236Z,4.25
2023-04-08T13:57:51.112Z,4.00
2023-04-08T14:00:18.591Z,3.97
2023-04-08T14:02:45.128Z,3.17
2023-04-08T14:05:11.662Z,3.60
2023-04-08T14:07:38.025Z,2.58
2023-04-08T14:10:04.801Z,2.50
2023-04-08T14:12:31.306Z,2.95
2023-04-08T14:14:57.682Z,2.58
2023-04-08T14:17:24.325Z,1.92
2023-04-08T14:19:51.126Z,2.33
2023-04-08T14:22:19.053Z,2.65
2023-04-08T14:24:45.418Z,2.25
2023-04-08T14:27:11.802Z,2.40
2023-04-08T14:29:40.741Z,3.17
2023-04-08T14:32:07.167Z,2.50
2023-04-08T14:34:33.543Z,3.28
2023-04-08T14:37:02.110Z,3.10
2023-04-08T14:39:28.546Z,2.55
2023-04-08T14:41:54.976Z,2.95
2023-04-08T14:44:21.318Z,2.60
2023-04-08T14:46:47.988Z,3.25
2023-04-08T14:49:14.542Z,2.58
2023-04-08T14:51:41.035Z,3.20
2023-04-08T14:54:09.848Z,3.13
2023-04-08T14:56:36.438Z,2.45
2023-04-08T14:59:03.037Z,2.60
2023-04-08T15:01:32.198Z,2.90
2023-04-08T15:04:01.069Z,2.83
2023-04-08T15:06:27.661Z,3.08
2023-04-08T15:08:54.436Z,3.03
2023-04-08T15:11:21.864Z,2.80
2023-04-08T15:13:48.295Z,2.95
2023-04-08T15:16:14.804Z,3.47
2023-04-08T15:18:42.341Z,3.13
2023-04-08T15:21:09.007Z,3.40
2023-04-08T15:23:35.467Z,3.08
2023-04-08T15:26:03.956Z,3.20
2023-04-08T15:28:33.478Z,3.42
2023-04-08T15:30:59.903Z,3.50
2023-04-08T15:33:27.157Z,3.42
2023-04-08T15:35:53.721Z,3.47
2023-04-08T15:38:20.105Z,3.60
2023-04-08T15:40:48.215Z,3.33
2023-04-08T15:43:14.820Z,3.00
2023-04-08T15:45:44.671Z,3.25
2023-04-08T15:48:13.648Z,3.40
2023-04-08T15:50:40.172Z,3.13
2023-04-08T15:53:06.839Z,3.10
2023-04-08T15:55:42.464Z,3.22
2023-04-08T15:58:08.846Z,3.00
2023-04-08T16:00:35.402Z,3.70
2023-04-08T16:03:02.510Z,3.08
2023-04-08T16:05:30.274Z,2.50
2023-04-08T16:07:57.954Z,2.60
2023-04-08T16:10:24.396Z,2.83
2023-04-08T16:12:53.583Z,2.65
2023-04-08T16:15:20.104Z,3.05
2023-04-08T16:17:52.928Z,2.40
2023-04-08T16:20:21.702Z,2.60
2023-04-08T16:22:48.345Z,2.85
2023-04-08T16:25:15.633Z,2.53
2023-04-08T16:27:42.041Z,2.38
2023-04-08T16:30:09.209Z,2.22
2023-04-08T16:32:38.249Z,2.47
2023-04-08T16:35:05.538Z,2.50
2023-04-08T16:37:33.111Z,2.38
2023-04-08T16:39:59.620Z,3.08
2023-04-08T16:42:29.167Z,2.88
2023-04-08T16:44:57.218Z,2.88
2023-04-08T16:47:24.167Z,2.97
2023-04-08T16:49:53.650Z,2.83
2023-04-08T16:52:21.850Z,2.80
2023-04-08T16:54:53.383Z,2.80
2023-04-08T16:57:21.339Z,3.20
2023-04-08T16:59:50.305Z,3.35
2023-04-08T17:02:17.210Z,2.75
2023-04-08T17:04:44.224Z,2.78
2023-04-08T17:07:11.058Z,3.55
2023-04-08T17:09:39.011Z,3.50
2023-04-08T17:12:06.632Z,3.03
2023-04-08T17:14:35.981Z,9.07
2023-04-08T17:17:05.699Z,11.07
2023-04-08T17:19:32.618Z,7.75
2023-04-08T17:21:59.050Z,7.75
2023-04-08T17:24:25.498Z,5.43
2023-04-08T17:26:52.607Z,6.25
2023-04-08T17:29:19.038Z,4.40
2023-04-08T17:31:45.529Z,3.85
2023-04-08T17:34:14.226Z,3.67
2023-04-08T17:36:43.117Z,3.55
2023-04-08T17:39:09.587Z,3.92
2023-04-08T17:41:40.548Z,3.42
2023-04-08T17:44:08.192Z,4.50
2023-04-08T17:46:35.325Z,3.90
2023-04-08T17:49:01.977Z,3.42
2023-04-08T17:51:30.090Z,4.05
2023-04-08T17:53:56.773Z,3.72
2023-04-08T17:56:27.171Z,3.97
2023-04-08T17:58:53.662Z,4.15
2023-04-08T18:01:22.357Z,3.38
2023-04-08T18:03:54.832Z,3.25
2023-04-08T18:06:21.737Z,3.53
2023-04-08T18:08:50.591Z,3.90
2023-04-08T18:11:17.031Z,3.47
2023-04-08T18:13:43.516Z,3.50
2023-04-08T18:16:20.640Z,4.65
2023-04-08T18:18:47.788Z,4.00
2023-04-08T18:21:19.837Z,3.55
2023-04-08T18:23:49.303Z,4.90
2023-04-08T18:26:16.143Z,3.65
2023-04-08T18:28:42.705Z,4.13
2023-04-08T18:31:09.595Z,3.70
2023-04-08T18:33:36.368Z,4.13
2023-04-08T18:36:10.286Z,3.83
2023-04-08T18:38:37.025Z,3.55
2023-04-08T18:41:06.825Z,4.15
2023-04-08T18:43:33.854Z,4.13
2023-04-08T18:46:00.726Z,5.07
2023-04-08T18:48:27.384Z,4.53
2023-04-08T18:50:56.661Z,4.05
2023-04-08T18:53:23.226Z,4.13
2023-04-08T18:55:51.182Z,4.65
2023-04-08T18:58:22.221Z,4.63
2023-04-08T19:00:51.088Z,4.65
2023-04-08T19:03:17.526Z,4.68
2023-04-08T19:05:46.490Z,3.92
2023-04-08T19:08:12.908Z,5.47
2023-04-08T19:10:39.798Z,9.38
2023-04-08T19:13:06.514Z,5.97
2023-04-08T19:15:33.144Z,5.03
2023-04-08T19:18:00.609Z,5.22
2023-04-08T19:20:29.632Z,5.03
2023-04-08T19:22:56.448Z,4.57
2023-04-08T19:25:25.382Z,4.13
2023-04-08T19:27:51.787Z,5.05
2023-04-08T19:30:18.181Z,4.88
2023-04-08T19:32:45.924Z,4.40
2023-04-08T19:35:13.396Z,5.35
2023-04-08T19:37:43.123Z,5.05
2023-04-08T19:40:10.714Z,6.35
2023-04-08T19:42:41.737Z,5.75
2023-04-08T19:45:08.684Z,6.30
2023-04-08T19:47:37.310Z,5.13
2023-04-08T19:50:03.842Z,5.70
2023-04-08T19:52:31.486Z,5.70
2023-04-08T19:55:00.252Z,5.32
2023-04-08T19:57:26.829Z,4.57
2023-04-08T19:59:53.740Z,6.03
2023-04-08T20:02:25.750Z,5.97
2023-04-08T20:04:52.403Z,4.43
2023-04-08T20:07:18.984Z,4.95
2023-04-08T20:09:45.608Z,3.17
2023-04-08T20:12:12.051Z,3.55
2023-04-08T20:14:43.167Z,3.15
2023-04-08T20:17:12.545Z,3.25
2023-04-08T20:19:39.252Z,4.25
2023-04-08T20:22:05.753Z,3.97
2023-04-08T20:24:32.534Z,3.17
2023-04-08T20:27:01.410Z,2.80
2023-04-08T20:29:28.687Z,2.75
2023-04-08T20:31:55.134Z,3.38
2023-04-08T20:34:24.208Z,2.55
2023-04-08T20:36:51.009Z,2.85
2023-04-08T20:39:17.528Z,2.72
2023-04-08T20:41:44.274Z,2.90
2023-04-08T20:44:13.324Z,2.85
2023-04-08T20:46:39.831Z,2.97
2023-04-08T20:49:08.692Z,2.53
2023-04-08T20:51:35.203Z,2.92
2023-04-08T20:54:04.853Z,2.63
2023-04-08T20:56:31.360Z,2.25
2023-04-08T20:59:00.530Z,2.70
2023-04-08T21:01:27.203Z,2.67
2023-04-08T21:03:54.705Z,2.92
2023-04-08T21:06:21.782Z,2.72
2023-04-08T21:08:48.953Z,2.95
2023-04-08T21:11:15.954Z,108.10
2023-04-08T21:13:42.974Z,25.13
2023-04-08T21:16:09.599Z,67.63
2023-04-08T21:18:41.274Z,27.63
2023-04-08T21:21:14.827Z,78.18
2023-04-08T21:23:43.436Z,144.70
2023-04-08T21:26:13.582Z,92.47
2023-04-08T21:28:53.903Z,35.92
2023-04-08T21:31:21.228Z,6.07
2023-04-08T21:33:50.776Z,5.72
2023-04-08T21:36:18.668Z,5.88
2023-04-08T21:38:45.375Z,4.47
2023-04-08T21:41:11.931Z,10.50
2023-04-08T21:43:43.585Z,4.75
2023-04-08T21:46:13.156Z,3.83
2023-04-08T21:48:39.498Z,2.85
2023-04-08T21:51:09.068Z,4.70
2023-04-08T21:53:40.153Z,5.40
2023-04-08T21:56:12.738Z,4.78
2023-04-08T21:58:41.534Z,7.20
2023-04-08T22:01:15.529Z,8.05
2023-04-08T22:03:52.440Z,3.60
2023-04-08T22:06:31.486Z,5.22
2023-04-08T22:09:04.217Z,3.33
2023-04-08T22:11:30.779Z,4.63
2023-04-08T22:13:57.155Z,4.45
2023-04-08T22:16:26.303Z,6.20
2023-04-08T22:18:53.025Z,3.72
2023-04-08T22:21:22.624Z,4.07
2023-04-08T22:23:49.277Z,33.67
2023-04-08T22:26:16.040Z,23.23
2023-04-08T22:28:42.755Z,32.42
2023-04-08T22:31:11.488Z,59.75
2023-04-08T22:33:38.901Z,47.67
2023-04-08T22:36:05.848Z,19.83
2023-04-08T22:38:32.501Z,10.45
2023-04-08T22:40:58.930Z,8.00
2023-04-08T22:43:25.515Z,5.63
2023-04-08T22:45:52.312Z,4.78
2023-04-08T22:48:18.718Z,4.03
2023-04-08T22:50:45.310Z,3.42
2023-04-08T22:53:12.789Z,3.20
2023-04-08T22:55:39.303Z,4.00
2023-04-08T22:58:05.879Z,3.67
2023-04-08T23:00:32.356Z,3.10
2023-04-08T23:02:58.879Z,3.30
2023-04-08T23:05:27.701Z,4.20
2023-04-08T23:07:54.077Z,3.83
2023-04-08T23:10:20.495Z,4.15
2023-04-08T23:12:46.957Z,3.97
2023-04-08T23:15:16.413Z,4.35
2023-04-08T23:17:42.843Z,3.85
2023-04-08T23:20:09.517Z,3.42
2023-04-08T23:22:36.429Z,4.15
2023-04-08T23:25:02.813Z,4.13
2023-04-08T23:27:29.398Z,3.05
2023-04-08T23:29:55.905Z,3.83
2023-04-08T23:32:22.413Z,3.90
2023-04-08T23:34:49.045Z,4.60
2023-04-08T23:37:17.916Z,4.57
2023-04-08T23:39:44.280Z,4.35
2023-04-08T23:42:13.217Z,4.38
2023-04-08T23:44:39.844Z,4.38
2023-04-08T23:47:06.386Z,4.28
2023-04-08T23:49:32.740Z,4.57
2023-04-08T23:51:59.149Z,4.18
2023-04-08T23:54:30.325Z,4.00
2023-04-08T23:56:57.326Z,4.35
2023-04-08T23:59:23.746Z,4.68
